VIR104L KATL-EGLL
Flight info
| Callsign | VIR104L |
|---|---|
| Flight time | N/A |
| Altitude | 37000 |
| Route | PHIIL3 HRTWL Q64 TYI DCT ORF AR9 ZIBUT DCT LARGE DCT JENYY DCT DOVEY/M085F370 DCT 42N060W 44N050W 47N040W 49N030W 50N020W DCT SOMAX DCT ATSUR/N0488F370 DCT EVRIN DCT JETZI DCT AMFUL/N0463F230 P2 SIRIC |
| Aircraft | A35K/H-SDE2E3GHIJ3J4J5LM1ORWXY/LB1D1 |
Departure
| Time | 2026-05-04 09:37 |
|---|---|
| Airport | Hartsfield Jackson Atlanta International Airport (KATL) |
Arrival
| Time | N/A |
|---|---|
| Airport | London Heathrow Airport (EGLL) |
| Time | Latitude | Longitude | Altitude | Speed | Heading |
|---|---|---|---|---|---|
| 2026-05-04 09:15 | 33.63732 | -84.42059 | 1012 ft | 0 kts | 91° |
| 2026-05-04 09:27 | 33.63732 | -84.42076 | 1012 ft | 3 kts | 91° |
| 2026-05-04 09:27 | 33.63732 | -84.42092 | 1012 ft | 2 kts | 90° |
| 2026-05-04 09:27 | 33.63732 | -84.42096 | 1012 ft | 2 kts | 90° |
| 2026-05-04 09:28 | 33.63734 | -84.42119 | 1012 ft | 3 kts | 108° |
| 2026-05-04 09:28 | 33.63742 | -84.42138 | 1012 ft | 3 kts | 144° |
| 2026-05-04 09:28 | 33.63759 | -84.42146 | 1012 ft | 3 kts | 176° |
| 2026-05-04 09:28 | 33.63779 | -84.42146 | 1012 ft | 3 kts | 184° |
| 2026-05-04 09:29 | 33.63793 | -84.42145 | 1012 ft | 1 kts | 180° |
| 2026-05-04 09:29 | 33.63796 | -84.42145 | 1012 ft | 0 kts | 180° |
| 2026-05-04 09:32 | 33.63776 | -84.42145 | 1012 ft | 9 kts | 180° |
| 2026-05-04 09:32 | 33.63674 | -84.42144 | 1013 ft | 19 kts | 179° |
| 2026-05-04 09:34 | 33.63540 | -84.40752 | 1013 ft | 12 kts | 158° |
| 2026-05-04 09:34 | 33.63484 | -84.40768 | 1013 ft | 4 kts | 238° |
| 2026-05-04 09:34 | 33.63478 | -84.40792 | 1013 ft | 0 kts | 257° |
| 2026-05-04 09:35 | 33.63478 | -84.40794 | 1013 ft | 0 kts | 263° |
| 2026-05-04 09:37 | 33.63458 | -84.44635 | 1997 ft | 162 kts | 269° |
| 2026-05-04 09:37 | 33.63456 | -84.46029 | 2469 ft | 179 kts | 270° |
| 2026-05-04 09:38 | 33.63448 | -84.47535 | 2948 ft | 185 kts | 270° |
| 2026-05-04 09:38 | 33.63436 | -84.49146 | 3251 ft | 202 kts | 270° |
| 2026-05-04 09:38 | 33.63422 | -84.50898 | 3574 ft | 217 kts | 270° |
| 2026-05-04 09:38 | 33.63227 | -84.52722 | 3972 ft | 227 kts | 249° |
| 2026-05-04 09:39 | 33.62385 | -84.54388 | 4356 ft | 242 kts | 238° |
| 2026-05-04 09:39 | 33.61194 | -84.55890 | 4835 ft | 255 kts | 216° |
| 2026-05-04 09:39 | 33.59516 | -84.56632 | 5435 ft | 263 kts | 192° |
| 2026-05-04 09:39 | 33.57683 | -84.56925 | 6051 ft | 269 kts | 188° |
| 2026-05-04 09:40 | 33.55795 | -84.57172 | 6641 ft | 275 kts | 187° |
| 2026-05-04 09:40 | 33.53871 | -84.57415 | 7192 ft | 280 kts | 187° |
| 2026-05-04 09:40 | 33.51916 | -84.57661 | 7791 ft | 285 kts | 186° |
| 2026-05-04 09:40 | 33.49920 | -84.57778 | 8394 ft | 289 kts | 175° |
| 2026-05-04 09:41 | 33.47990 | -84.57116 | 8990 ft | 291 kts | 150° |
| 2026-05-04 09:42 | 33.45615 | -84.39979 | 11698 ft | 354 kts | 89° |
| 2026-05-04 09:43 | 33.45602 | -84.37029 | 12019 ft | 365 kts | 89° |
| 2026-05-04 09:43 | 33.45680 | -84.33957 | 12425 ft | 370 kts | 82° |
| 2026-05-04 09:43 | 33.46232 | -84.30938 | 12891 ft | 373 kts | 72° |
| 2026-05-04 09:43 | 33.46986 | -84.27950 | 13349 ft | 377 kts | 71° |
| 2026-05-04 09:44 | 33.47766 | -84.24938 | 13834 ft | 380 kts | 71° |
| 2026-05-04 09:44 | 33.48550 | -84.21892 | 14252 ft | 384 kts | 71° |
| 2026-05-04 09:44 | 33.49336 | -84.18814 | 14646 ft | 389 kts | 71° |
| 2026-05-04 09:46 | 33.55017 | -83.96316 | 17457 ft | 418 kts | 71° |
| 2026-05-04 09:46 | 33.55858 | -83.92963 | 17851 ft | 422 kts | 71° |
| 2026-05-04 09:46 | 33.56707 | -83.89572 | 18259 ft | 426 kts | 71° |
| 2026-05-04 09:47 | 33.57558 | -83.86172 | 18615 ft | 429 kts | 71° |
| 2026-05-04 09:47 | 33.58481 | -83.82737 | 18962 ft | 431 kts | 66° |
| 2026-05-04 09:49 | 33.66558 | -83.59025 | 21419 ft | 453 kts | 75° |
| 2026-05-04 09:49 | 33.67248 | -83.55316 | 21748 ft | 456 kts | 75° |
| 2026-05-04 09:49 | 33.67934 | -83.51589 | 22085 ft | 459 kts | 75° |
| 2026-05-04 09:51 | 33.72164 | -83.28772 | 23937 ft | 474 kts | 75° |
| 2026-05-04 09:51 | 33.72881 | -83.24898 | 24208 ft | 477 kts | 75° |
| 2026-05-04 09:51 | 33.73599 | -83.21006 | 24480 ft | 479 kts | 75° |
| 2026-05-04 09:51 | 33.74347 | -83.17153 | 24732 ft | 480 kts | 72° |
| 2026-05-04 09:52 | 33.75477 | -83.13397 | 24973 ft | 477 kts | 61° |
| 2026-05-04 09:52 | 33.77078 | -83.09924 | 25284 ft | 475 kts | 54° |
| 2026-05-04 09:52 | 33.78832 | -83.06531 | 25512 ft | 477 kts | 53° |
| 2026-05-04 09:52 | 33.80598 | -83.03150 | 25804 ft | 479 kts | 53° |
| 2026-05-04 09:53 | 33.82368 | -82.99749 | 26073 ft | 481 kts | 53° |
| 2026-05-04 09:53 | 33.84142 | -82.96327 | 26355 ft | 483 kts | 53° |
| 2026-05-04 09:53 | 33.85920 | -82.92888 | 26640 ft | 485 kts | 53° |
| 2026-05-04 09:53 | 33.87705 | -82.89430 | 26955 ft | 487 kts | 53° |
| 2026-05-04 09:54 | 33.88890 | -82.87131 | 27153 ft | 488 kts | 53° |
| 2026-05-04 09:54 | 33.90678 | -82.83656 | 27442 ft | 491 kts | 53° |
| 2026-05-04 09:54 | 33.92489 | -82.80135 | 27773 ft | 493 kts | 53° |
| 2026-05-04 09:54 | 33.94889 | -82.75460 | 28241 ft | 495 kts | 53° |
| 2026-05-04 09:55 | 33.96115 | -82.73070 | 28484 ft | 497 kts | 53° |
| 2026-05-04 09:55 | 33.97933 | -82.69522 | 28805 ft | 499 kts | 53° |
| 2026-05-04 09:55 | 33.99754 | -82.65949 | 29159 ft | 502 kts | 53° |
| 2026-05-04 09:55 | 34.01583 | -82.62337 | 29437 ft | 506 kts | 53° |
| 2026-05-04 09:56 | 34.03416 | -82.58711 | 29758 ft | 508 kts | 53° |
| 2026-05-04 09:56 | 34.05237 | -82.55106 | 30104 ft | 510 kts | 53° |
| 2026-05-04 09:56 | 34.07087 | -82.51440 | 30400 ft | 513 kts | 53° |
| 2026-05-04 09:56 | 34.08947 | -82.47750 | 30685 ft | 515 kts | 53° |
| 2026-05-04 09:57 | 34.10814 | -82.44044 | 30976 ft | 518 kts | 53° |
| 2026-05-04 09:57 | 34.12690 | -82.40316 | 31287 ft | 520 kts | 53° |
| 2026-05-04 09:57 | 34.14570 | -82.36576 | 31571 ft | 522 kts | 53° |
| 2026-05-04 09:57 | 34.16456 | -82.32819 | 31848 ft | 524 kts | 53° |
| 2026-05-04 09:58 | 34.18057 | -82.29628 | 32101 ft | 525 kts | 53° |
| 2026-05-04 09:58 | 34.19948 | -82.25853 | 32503 ft | 524 kts | 53° |
| 2026-05-04 09:58 | 34.21831 | -82.22089 | 32917 ft | 523 kts | 53° |
| 2026-05-04 10:00 | 34.34981 | -81.95906 | 35314 ft | 521 kts | 53° |
| 2026-05-04 10:00 | 34.36865 | -81.92154 | 35601 ft | 521 kts | 53° |
| 2026-05-04 10:02 | 34.50036 | -81.65781 | 37111 ft | 524 kts | 53° |
| 2026-05-04 10:04 | 34.63203 | -81.39211 | 37115 ft | 525 kts | 53° |
| 2026-05-04 10:04 | 34.66926 | -81.31665 | 37121 ft | 525 kts | 53° |
| 2026-05-04 10:05 | 34.70681 | -81.24034 | 37133 ft | 526 kts | 53° |
| 2026-05-04 10:05 | 34.74440 | -81.16381 | 37130 ft | 527 kts | 53° |
| 2026-05-04 10:06 | 34.78193 | -81.08721 | 37127 ft | 527 kts | 53° |
| 2026-05-04 10:06 | 34.81489 | -81.00828 | 37123 ft | 532 kts | 60° |
| 2026-05-04 10:08 | 34.92036 | -80.72168 | 37116 ft | 534 kts | 61° |
| 2026-05-04 10:08 | 34.95068 | -80.63885 | 37116 ft | 534 kts | 61° |
| 2026-05-04 10:09 | 34.98087 | -80.55619 | 37111 ft | 534 kts | 61° |
| 2026-05-04 10:09 | 35.01101 | -80.47342 | 37109 ft | 534 kts | 61° |
| 2026-05-04 10:10 | 35.04116 | -80.39044 | 37110 ft | 534 kts | 61° |
| 2026-05-04 10:10 | 35.07122 | -80.30745 | 37113 ft | 535 kts | 61° |
| 2026-05-04 10:11 | 35.10124 | -80.22438 | 37116 ft | 534 kts | 61° |
| 2026-05-04 10:11 | 35.13125 | -80.14113 | 37119 ft | 535 kts | 61° |
| 2026-05-04 10:12 | 35.16123 | -80.05777 | 37118 ft | 536 kts | 61° |
| 2026-05-04 10:12 | 35.19116 | -79.97431 | 37115 ft | 537 kts | 61° |
| 2026-05-04 10:13 | 35.22095 | -79.89113 | 37115 ft | 537 kts | 61° |
| 2026-05-04 10:13 | 35.25088 | -79.80739 | 37103 ft | 537 kts | 61° |
| 2026-05-04 10:14 | 35.28072 | -79.72377 | 37100 ft | 538 kts | 62° |
| 2026-05-04 10:16 | 35.40034 | -79.38605 | 37123 ft | 541 kts | 63° |
| 2026-05-04 10:16 | 35.43012 | -79.30137 | 37125 ft | 541 kts | 63° |
| 2026-05-04 10:17 | 35.45986 | -79.21652 | 37126 ft | 541 kts | 63° |
| 2026-05-04 10:19 | 35.57835 | -78.87641 | 37120 ft | 543 kts | 64° |
| 2026-05-04 10:19 | 35.60794 | -78.79086 | 37116 ft | 543 kts | 64° |
| 2026-05-04 10:20 | 35.63743 | -78.70531 | 37119 ft | 543 kts | 64° |
| 2026-05-04 10:20 | 35.66689 | -78.61968 | 37114 ft | 544 kts | 65° |
| 2026-05-04 10:21 | 35.69612 | -78.53438 | 37124 ft | 544 kts | 65° |
| 2026-05-04 10:21 | 35.72547 | -78.44844 | 37129 ft | 546 kts | 65° |
| 2026-05-04 10:22 | 35.76956 | -78.31909 | 37114 ft | 546 kts | 65° |
| 2026-05-04 10:23 | 35.79891 | -78.23272 | 37119 ft | 546 kts | 65° |
| 2026-05-04 10:25 | 35.91570 | -77.88654 | 37127 ft | 548 kts | 66° |
| 2026-05-04 10:25 | 35.94482 | -77.79962 | 37126 ft | 549 kts | 66° |
| 2026-05-04 10:26 | 35.97534 | -77.71405 | 37125 ft | 546 kts | 58° |
| 2026-05-04 10:26 | 36.01785 | -77.63686 | 37130 ft | 542 kts | 50° |
| 2026-05-04 10:27 | 36.06359 | -77.56267 | 37120 ft | 542 kts | 49° |
| 2026-05-04 10:27 | 36.10994 | -77.48872 | 37146 ft | 545 kts | 49° |
| 2026-05-04 10:28 | 36.15626 | -77.41423 | 37126 ft | 546 kts | 49° |
| 2026-05-04 10:28 | 36.20206 | -77.34001 | 37126 ft | 546 kts | 49° |
| 2026-05-04 10:29 | 36.24799 | -77.26529 | 37128 ft | 546 kts | 49° |
| 2026-05-04 10:29 | 36.29411 | -77.19011 | 37128 ft | 547 kts | 50° |
| 2026-05-04 10:30 | 36.34020 | -77.11483 | 37128 ft | 549 kts | 50° |
| 2026-05-04 10:30 | 36.38630 | -77.03937 | 37127 ft | 549 kts | 50° |
| 2026-05-04 10:31 | 36.43237 | -76.96378 | 37126 ft | 549 kts | 50° |
| 2026-05-04 10:32 | 36.59357 | -76.69805 | 37119 ft | 552 kts | 50° |
| 2026-05-04 10:33 | 36.63976 | -76.62149 | 37118 ft | 552 kts | 50° |
| 2026-05-04 10:33 | 36.68581 | -76.54501 | 37118 ft | 552 kts | 50° |
| 2026-05-04 10:34 | 36.73192 | -76.46827 | 37117 ft | 553 kts | 50° |
| 2026-05-04 10:34 | 36.77804 | -76.39134 | 37116 ft | 555 kts | 50° |
| 2026-05-04 10:35 | 36.82423 | -76.31409 | 37113 ft | 555 kts | 51° |
| 2026-05-04 10:35 | 36.86814 | -76.23461 | 37109 ft | 558 kts | 60° |
| 2026-05-04 10:36 | 36.88340 | -76.19080 | 37111 ft | 559 kts | 71° |
| 2026-05-04 10:36 | 36.89228 | -76.14367 | 37101 ft | 558 kts | 84° |
| 2026-05-04 10:36 | 36.89773 | -76.04710 | 37109 ft | 557 kts | 90° |
| 2026-05-04 10:37 | 36.89966 | -75.95015 | 37110 ft | 558 kts | 91° |
| 2026-05-04 10:37 | 36.90137 | -75.85334 | 37123 ft | 558 kts | 91° |
| 2026-05-04 10:39 | 36.90928 | -75.51333 | 37129 ft | 560 kts | 91° |
| 2026-05-04 10:40 | 36.91101 | -75.43250 | 37126 ft | 560 kts | 91° |
| 2026-05-04 10:40 | 36.91325 | -75.33542 | 37129 ft | 561 kts | 90° |
| 2026-05-04 10:41 | 36.91718 | -75.22207 | 37131 ft | 561 kts | 90° |
| 2026-05-04 10:41 | 36.91937 | -75.14100 | 37132 ft | 560 kts | 91° |
| 2026-05-04 10:42 | 36.92087 | -75.04363 | 37103 ft | 560 kts | 92° |
| 2026-05-04 10:42 | 36.92211 | -74.94641 | 37131 ft | 558 kts | 92° |
| 2026-05-04 10:43 | 36.92328 | -74.85645 | 37133 ft | 558 kts | 92° |
| 2026-05-04 10:45 | 36.92800 | -74.46898 | 37160 ft | 558 kts | 92° |
| 2026-05-04 10:45 | 36.92919 | -74.37208 | 37140 ft | 558 kts | 92° |
| 2026-05-04 10:46 | 36.93064 | -74.27515 | 37143 ft | 559 kts | 92° |
| 2026-05-04 10:46 | 36.93204 | -74.17800 | 37142 ft | 559 kts | 92° |
| 2026-05-04 10:47 | 36.93333 | -74.08075 | 37138 ft | 559 kts | 92° |
| 2026-05-04 10:47 | 36.93451 | -73.98361 | 37133 ft | 559 kts | 92° |
| 2026-05-04 10:49 | 36.93768 | -73.59342 | 37151 ft | 562 kts | 94° |
| 2026-05-04 10:50 | 36.93765 | -73.49559 | 37151 ft | 563 kts | 94° |
| 2026-05-04 10:52 | 36.93850 | -73.10454 | 37156 ft | 566 kts | 94° |
| 2026-05-04 10:52 | 36.93858 | -73.00591 | 37159 ft | 566 kts | 94° |
| 2026-05-04 10:54 | 36.95671 | -72.66282 | 37159 ft | 576 kts | 66° |
| 2026-05-04 10:54 | 36.97584 | -72.61904 | 37160 ft | 574 kts | 53° |
| 2026-05-04 10:56 | 37.18992 | -72.32237 | 37156 ft | 576 kts | 44° |
| 2026-05-04 10:57 | 37.24392 | -72.24798 | 37136 ft | 576 kts | 44° |
| 2026-05-04 10:57 | 37.29794 | -72.17333 | 37198 ft | 579 kts | 44° |
| 2026-05-04 10:58 | 37.35193 | -72.09854 | 37156 ft | 577 kts | 44° |
| 2026-05-04 10:58 | 37.40539 | -72.02436 | 37157 ft | 576 kts | 44° |
| 2026-05-04 10:59 | 37.45935 | -71.94935 | 37154 ft | 576 kts | 45° |
| 2026-05-04 10:59 | 37.51310 | -71.87446 | 37153 ft | 576 kts | 44° |
| 2026-05-04 11:00 | 37.56708 | -71.79926 | 37155 ft | 584 kts | 45° |
| 2026-05-04 11:02 | 37.78628 | -71.49109 | 37152 ft | 592 kts | 45° |
| 2026-05-04 11:05 | 38.19475 | -70.90921 | 37144 ft | 586 kts | 45° |
| 2026-05-04 11:06 | 38.24877 | -70.83145 | 37142 ft | 585 kts | 45° |
| 2026-05-04 11:06 | 38.30231 | -70.75420 | 37138 ft | 585 kts | 45° |
| 2026-05-04 11:10 | 38.67786 | -70.20700 | 37128 ft | 585 kts | 45° |
| 2026-05-04 11:12 | 38.89137 | -69.89166 | 37118 ft | 586 kts | 45° |
| 2026-05-04 11:12 | 38.94457 | -69.81257 | 37105 ft | 587 kts | 45° |
| 2026-05-04 11:13 | 38.99799 | -69.73299 | 37111 ft | 587 kts | 45° |
| 2026-05-04 11:13 | 39.05131 | -69.65336 | 37115 ft | 587 kts | 46° |
| 2026-05-04 11:14 | 39.10455 | -69.57363 | 37110 ft | 587 kts | 46° |
| 2026-05-04 11:16 | 39.31584 | -69.25083 | 37102 ft | 591 kts | 50° |
| 2026-05-04 11:16 | 39.36370 | -69.16422 | 37094 ft | 592 kts | 52° |
| 2026-05-04 11:17 | 39.41087 | -69.07693 | 37099 ft | 593 kts | 52° |
| 2026-05-04 11:19 | 39.60230 | -68.72942 | 37087 ft | 593 kts | 52° |
| 2026-05-04 11:19 | 39.65020 | -68.64208 | 37088 ft | 593 kts | 52° |
| 2026-05-04 11:20 | 39.69797 | -68.55472 | 37083 ft | 593 kts | 52° |
| 2026-05-04 11:20 | 39.74570 | -68.46722 | 37091 ft | 594 kts | 52° |
| 2026-05-04 11:22 | 39.93878 | -68.11939 | 37067 ft | 588 kts | 40° |
| 2026-05-04 11:23 | 40.00142 | -68.05265 | 37064 ft | 579 kts | 31° |
| 2026-05-04 11:25 | 40.23089 | -67.84064 | 37083 ft | 576 kts | 29° |
| 2026-05-04 11:25 | 40.29607 | -67.77977 | 37055 ft | 574 kts | 30° |
| 2026-05-04 11:27 | 40.58656 | -67.50647 | 37030 ft | 570 kts | 30° |
| 2026-05-04 11:28 | 40.64058 | -67.45536 | 37029 ft | 571 kts | 30° |
| 2026-05-04 11:28 | 40.70515 | -67.39411 | 37029 ft | 572 kts | 30° |
| 2026-05-04 11:29 | 40.76926 | -67.33315 | 37031 ft | 570 kts | 30° |
| 2026-05-04 11:29 | 40.83347 | -67.27192 | 37026 ft | 569 kts | 30° |
| 2026-05-04 11:33 | 41.16237 | -66.71800 | 37013 ft | 585 kts | 80° |
| 2026-05-04 11:33 | 41.17787 | -66.61171 | 37005 ft | 586 kts | 79° |
| 2026-05-04 11:34 | 41.19378 | -66.50636 | 37011 ft | 585 kts | 79° |
| 2026-05-04 11:34 | 41.21002 | -66.40051 | 37004 ft | 585 kts | 79° |
| 2026-05-04 11:35 | 41.22622 | -66.29472 | 37010 ft | 585 kts | 79° |
| 2026-05-04 11:35 | 41.24234 | -66.18847 | 37004 ft | 587 kts | 79° |
| 2026-05-04 11:36 | 41.25837 | -66.08192 | 37015 ft | 588 kts | 79° |
| 2026-05-04 11:36 | 41.27429 | -65.97533 | 37008 ft | 586 kts | 79° |
| 2026-05-04 11:37 | 41.29010 | -65.86886 | 37004 ft | 587 kts | 79° |
| 2026-05-04 11:37 | 41.30572 | -65.76289 | 37005 ft | 588 kts | 79° |
| 2026-05-04 11:38 | 41.32137 | -65.65605 | 37007 ft | 588 kts | 79° |
| 2026-05-04 11:38 | 41.33693 | -65.54909 | 36999 ft | 590 kts | 80° |
| 2026-05-04 11:39 | 41.35242 | -65.44179 | 37004 ft | 589 kts | 80° |
| 2026-05-04 11:41 | 41.40572 | -65.06714 | 36992 ft | 591 kts | 80° |
| 2026-05-04 11:41 | 41.42079 | -64.95942 | 36993 ft | 591 kts | 80° |
| 2026-05-04 11:42 | 41.43575 | -64.85184 | 36998 ft | 591 kts | 80° |
| 2026-05-04 11:42 | 41.45061 | -64.74416 | 36995 ft | 590 kts | 80° |
| 2026-05-04 11:43 | 41.46537 | -64.63647 | 36996 ft | 590 kts | 80° |
| 2026-05-04 11:43 | 41.48004 | -64.52855 | 36990 ft | 590 kts | 81° |
| 2026-05-04 11:44 | 41.49458 | -64.42089 | 36997 ft | 589 kts | 81° |
| 2026-05-04 11:44 | 41.50899 | -64.31336 | 36981 ft | 589 kts | 81° |
| 2026-05-04 11:45 | 41.52324 | -64.20628 | 36987 ft | 590 kts | 81° |
| 2026-05-04 11:45 | 41.53747 | -64.09845 | 36983 ft | 590 kts | 81° |
| 2026-05-04 11:46 | 41.55164 | -63.99038 | 36989 ft | 592 kts | 81° |
| 2026-05-04 11:46 | 41.56571 | -63.88217 | 36982 ft | 591 kts | 81° |
| 2026-05-04 11:47 | 41.57965 | -63.77419 | 36974 ft | 590 kts | 81° |
| 2026-05-04 11:47 | 41.59352 | -63.66589 | 36969 ft | 591 kts | 81° |
| 2026-05-04 11:48 | 41.60722 | -63.55809 | 36972 ft | 592 kts | 81° |
| 2026-05-04 11:48 | 41.62092 | -63.44944 | 36964 ft | 592 kts | 81° |
| 2026-05-04 11:49 | 41.63453 | -63.34067 | 36968 ft | 594 kts | 81° |
| 2026-05-04 11:49 | 41.64808 | -63.23142 | 36959 ft | 595 kts | 82° |
| 2026-05-04 11:50 | 41.66155 | -63.12204 | 36939 ft | 596 kts | 82° |
| 2026-05-04 11:50 | 41.67491 | -63.01260 | 36953 ft | 597 kts | 82° |
| 2026-05-04 11:51 | 41.68818 | -62.90301 | 36957 ft | 596 kts | 82° |
| 2026-05-04 11:51 | 41.70132 | -62.79361 | 36949 ft | 595 kts | 82° |
| 2026-05-04 11:52 | 41.71428 | -62.68485 | 36947 ft | 596 kts | 82° |
| 2026-05-04 11:52 | 41.72724 | -62.57508 | 36946 ft | 597 kts | 82° |
| 2026-05-04 11:53 | 41.74010 | -62.46531 | 36939 ft | 597 kts | 82° |
| 2026-05-04 11:53 | 41.75283 | -62.35561 | 36932 ft | 595 kts | 82° |
| 2026-05-04 11:55 | 41.80273 | -61.91647 | 36929 ft | 596 kts | 83° |
| 2026-05-04 11:56 | 41.81487 | -61.80733 | 36916 ft | 595 kts | 83° |
| 2026-05-04 11:56 | 41.82695 | -61.69763 | 36912 ft | 595 kts | 83° |
| 2026-05-04 11:57 | 41.83896 | -61.58758 | 36914 ft | 595 kts | 83° |
| 2026-05-04 11:57 | 41.85085 | -61.47766 | 36909 ft | 595 kts | 83° |
| 2026-05-04 11:58 | 41.86264 | -61.36765 | 36919 ft | 596 kts | 83° |
| 2026-05-04 11:58 | 41.87431 | -61.25774 | 36905 ft | 595 kts | 83° |
| 2026-05-04 11:59 | 41.88588 | -61.14774 | 36906 ft | 595 kts | 83° |
| 2026-05-04 11:59 | 41.89727 | -61.03840 | 36899 ft | 595 kts | 83° |
| 2026-05-04 12:00 | 41.90862 | -60.92836 | 36904 ft | 595 kts | 83° |
| 2026-05-04 12:00 | 41.91855 | -60.83129 | 36902 ft | 594 kts | 84° |
| 2026-05-04 12:01 | 41.92967 | -60.72163 | 36904 ft | 593 kts | 84° |
| 2026-05-04 12:02 | 41.96778 | -60.33704 | 36897 ft | 593 kts | 84° |
| 2026-05-04 12:03 | 41.97844 | -60.22706 | 36889 ft | 592 kts | 84° |
| 2026-05-04 12:03 | 41.98897 | -60.11729 | 36856 ft | 592 kts | 84° |
| 2026-05-04 12:04 | 42.00091 | -60.00745 | 36883 ft | 595 kts | 77° |
| 2026-05-04 12:04 | 42.02443 | -59.90059 | 36886 ft | 596 kts | 72° |
| 2026-05-04 12:05 | 42.05049 | -59.79555 | 36883 ft | 595 kts | 71° |
| 2026-05-04 12:05 | 42.07718 | -59.69010 | 36872 ft | 595 kts | 71° |
| 2026-05-04 12:06 | 42.10356 | -59.58455 | 36836 ft | 595 kts | 72° |
| 2026-05-04 12:06 | 42.12971 | -59.47848 | 36870 ft | 596 kts | 72° |
| 2026-05-04 12:07 | 42.15567 | -59.37241 | 36868 ft | 596 kts | 72° |
| 2026-05-04 12:07 | 42.18154 | -59.26624 | 36860 ft | 595 kts | 72° |
| 2026-05-04 12:08 | 42.20730 | -59.16010 | 36883 ft | 595 kts | 72° |
| 2026-05-04 12:08 | 42.23295 | -59.05400 | 36859 ft | 594 kts | 72° |
| 2026-05-04 12:09 | 42.25833 | -58.94850 | 36858 ft | 596 kts | 73° |
| 2026-05-04 12:09 | 42.28381 | -58.84209 | 36854 ft | 596 kts | 73° |
| 2026-05-04 12:10 | 42.30925 | -58.73533 | 36854 ft | 596 kts | 73° |
| 2026-05-04 12:10 | 42.33458 | -58.62854 | 36851 ft | 597 kts | 73° |
| 2026-05-04 12:11 | 42.35980 | -58.52171 | 36851 ft | 596 kts | 73° |
| 2026-05-04 12:11 | 42.38497 | -58.41462 | 36850 ft | 597 kts | 73° |
| 2026-05-04 12:12 | 42.41003 | -58.30745 | 36849 ft | 596 kts | 73° |
| 2026-05-04 12:12 | 42.43495 | -58.20038 | 36844 ft | 596 kts | 73° |
| 2026-05-04 12:14 | 42.53339 | -57.77226 | 36838 ft | 596 kts | 74° |
| 2026-05-04 12:15 | 42.55370 | -57.68289 | 36845 ft | 597 kts | 74° |
| 2026-05-04 12:15 | 42.57808 | -57.57517 | 36839 ft | 596 kts | 74° |
| 2026-05-04 12:16 | 42.60229 | -57.46763 | 36843 ft | 596 kts | 75° |
| 2026-05-04 12:16 | 42.62641 | -57.35992 | 36839 ft | 596 kts | 75° |
| 2026-05-04 12:17 | 42.65045 | -57.25211 | 36839 ft | 596 kts | 75° |
| 2026-05-04 12:17 | 42.67438 | -57.14427 | 36831 ft | 596 kts | 75° |
| 2026-05-04 12:18 | 42.69803 | -57.03709 | 36834 ft | 595 kts | 75° |
| 2026-05-04 12:18 | 42.72170 | -56.92925 | 36834 ft | 595 kts | 75° |
| 2026-05-04 12:19 | 42.74529 | -56.82129 | 36832 ft | 594 kts | 75° |
| 2026-05-04 12:19 | 42.76876 | -56.71336 | 36816 ft | 594 kts | 76° |
| 2026-05-04 12:20 | 42.79202 | -56.60579 | 36829 ft | 596 kts | 76° |
| 2026-05-04 12:20 | 42.81532 | -56.49748 | 36827 ft | 596 kts | 76° |
| 2026-05-04 12:21 | 42.83853 | -56.38913 | 36818 ft | 595 kts | 76° |
| 2026-05-04 12:21 | 42.86160 | -56.28077 | 36825 ft | 594 kts | 76° |
| 2026-05-04 12:22 | 42.88454 | -56.17253 | 36821 ft | 594 kts | 76° |
| 2026-05-04 12:22 | 42.90737 | -56.06423 | 36808 ft | 595 kts | 77° |
| 2026-05-04 12:23 | 42.93012 | -55.95571 | 36820 ft | 595 kts | 77° |
| 2026-05-04 12:23 | 42.95278 | -55.84708 | 36812 ft | 595 kts | 77° |
| 2026-05-04 12:24 | 42.97520 | -55.73901 | 36815 ft | 595 kts | 77° |
| 2026-05-04 12:24 | 42.99765 | -55.63028 | 36815 ft | 594 kts | 77° |
| 2026-05-04 12:25 | 43.01990 | -55.52190 | 36815 ft | 593 kts | 77° |
| 2026-05-04 12:25 | 43.04207 | -55.41328 | 36810 ft | 593 kts | 77° |
| 2026-05-04 12:26 | 43.06413 | -55.30467 | 36814 ft | 593 kts | 77° |
| 2026-05-04 12:26 | 43.08609 | -55.19602 | 36815 ft | 592 kts | 78° |
| 2026-05-04 12:27 | 43.10791 | -55.08742 | 36818 ft | 591 kts | 78° |
| 2026-05-04 12:27 | 43.12962 | -54.97875 | 36812 ft | 591 kts | 78° |
| 2026-05-04 12:28 | 43.15110 | -54.87068 | 36820 ft | 592 kts | 78° |
| 2026-05-04 12:28 | 43.17265 | -54.76164 | 36820 ft | 593 kts | 78° |
| 2026-05-04 12:29 | 43.19407 | -54.65268 | 36818 ft | 593 kts | 78° |
| 2026-05-04 12:29 | 43.21542 | -54.54346 | 36828 ft | 593 kts | 78° |
| 2026-05-04 12:30 | 43.23667 | -54.43423 | 36825 ft | 592 kts | 79° |
| 2026-05-04 12:30 | 43.25775 | -54.32518 | 36832 ft | 592 kts | 79° |
| 2026-05-04 12:31 | 43.27875 | -54.21591 | 36823 ft | 592 kts | 79° |
| 2026-05-04 12:31 | 43.29954 | -54.10717 | 36828 ft | 592 kts | 79° |
| 2026-05-04 12:32 | 43.33063 | -53.94340 | 36828 ft | 590 kts | 79° |
| 2026-05-04 12:33 | 43.35123 | -53.83403 | 36832 ft | 590 kts | 79° |
| 2026-05-04 12:33 | 43.37169 | -53.72486 | 36831 ft | 590 kts | 80° |
| 2026-05-04 12:34 | 43.39207 | -53.61555 | 36829 ft | 590 kts | 80° |
| 2026-05-04 12:34 | 43.41231 | -53.50622 | 36832 ft | 589 kts | 81° |
| 2026-05-04 12:35 | 43.43242 | -53.39698 | 36832 ft | 589 kts | 81° |
| 2026-05-04 12:35 | 43.45247 | -53.28747 | 36828 ft | 589 kts | 81° |
| 2026-05-04 12:36 | 43.47245 | -53.17904 | 36837 ft | 588 kts | 81° |
| 2026-05-04 12:36 | 43.49217 | -53.06975 | 36831 ft | 588 kts | 81° |
| 2026-05-04 12:37 | 43.51171 | -52.96035 | 36836 ft | 588 kts | 82° |
| 2026-05-04 12:37 | 43.53126 | -52.85070 | 36835 ft | 587 kts | 82° |
| 2026-05-04 12:38 | 43.55072 | -52.74120 | 36838 ft | 587 kts | 82° |
| 2026-05-04 12:38 | 43.56991 | -52.63257 | 36848 ft | 587 kts | 82° |
| 2026-05-04 12:39 | 43.58912 | -52.52318 | 36843 ft | 587 kts | 82° |
| 2026-05-04 12:39 | 43.60821 | -52.41386 | 36826 ft | 586 kts | 82° |
| 2026-05-04 12:40 | 43.62720 | -52.30432 | 36848 ft | 587 kts | 82° |
| 2026-05-04 12:40 | 43.64608 | -52.19477 | 36848 ft | 587 kts | 83° |
| 2026-05-04 12:41 | 43.66487 | -52.08511 | 36838 ft | 586 kts | 83° |
| 2026-05-04 12:41 | 43.68353 | -51.97560 | 36854 ft | 585 kts | 83° |
| 2026-05-04 12:42 | 43.70204 | -51.86618 | 36857 ft | 585 kts | 83° |
| 2026-05-04 12:42 | 43.72044 | -51.75673 | 36850 ft | 585 kts | 83° |
| 2026-05-04 12:43 | 43.73877 | -51.64706 | 36857 ft | 585 kts | 83° |
| 2026-05-04 12:43 | 43.75697 | -51.53753 | 36859 ft | 583 kts | 83° |
| 2026-05-04 12:44 | 43.77502 | -51.42810 | 36862 ft | 583 kts | 83° |
| 2026-05-04 12:44 | 43.79295 | -51.31872 | 36861 ft | 583 kts | 84° |
| 2026-05-04 12:45 | 43.81078 | -51.20923 | 36864 ft | 583 kts | 84° |
| 2026-05-04 12:45 | 43.82833 | -51.10084 | 36866 ft | 582 kts | 84° |
| 2026-05-04 12:46 | 43.84603 | -50.99073 | 36866 ft | 582 kts | 84° |
| 2026-05-04 12:46 | 43.86341 | -50.88192 | 36867 ft | 582 kts | 84° |
| 2026-05-04 12:47 | 43.88077 | -50.77249 | 36869 ft | 582 kts | 84° |
| 2026-05-04 12:47 | 43.89807 | -50.66277 | 36873 ft | 582 kts | 84° |
| 2026-05-04 12:48 | 43.91525 | -50.55310 | 36873 ft | 582 kts | 84° |
| 2026-05-04 12:48 | 43.93230 | -50.44345 | 36871 ft | 581 kts | 84° |
| 2026-05-04 12:49 | 43.94922 | -50.33400 | 36879 ft | 579 kts | 84° |
| 2026-05-04 12:49 | 43.96601 | -50.22468 | 36885 ft | 579 kts | 84° |
| 2026-05-04 12:50 | 43.98266 | -50.11538 | 36871 ft | 578 kts | 84° |
| 2026-05-04 12:50 | 44.00134 | -50.00652 | 36861 ft | 586 kts | 76° |
| 2026-05-04 12:51 | 44.03431 | -49.90299 | 36881 ft | 591 kts | 68° |
| 2026-05-04 12:51 | 44.07097 | -49.80083 | 36864 ft | 591 kts | 67° |
| 2026-05-04 12:52 | 44.10823 | -49.69872 | 36875 ft | 590 kts | 67° |
| 2026-05-04 12:52 | 44.14493 | -49.59685 | 36890 ft | 587 kts | 68° |
| 2026-05-04 12:53 | 44.18117 | -49.49504 | 36890 ft | 587 kts | 68° |
| 2026-05-04 12:53 | 44.21728 | -49.39299 | 36878 ft | 587 kts | 68° |
| 2026-05-04 12:54 | 44.25324 | -49.29105 | 36884 ft | 585 kts | 68° |
| 2026-05-04 12:54 | 44.28889 | -49.18966 | 36884 ft | 585 kts | 68° |
| 2026-05-04 12:55 | 44.32469 | -49.08751 | 36890 ft | 585 kts | 68° |
| 2026-05-04 12:55 | 44.36040 | -48.98536 | 36885 ft | 584 kts | 68° |
| 2026-05-04 12:56 | 44.39586 | -48.88340 | 36891 ft | 583 kts | 68° |
| 2026-05-04 12:56 | 44.43115 | -48.78143 | 36895 ft | 582 kts | 68° |
| 2026-05-04 12:57 | 44.46635 | -48.67938 | 36890 ft | 581 kts | 68° |
| 2026-05-04 12:57 | 44.50135 | -48.57761 | 36895 ft | 580 kts | 68° |
| 2026-05-04 12:58 | 44.53624 | -48.47576 | 36896 ft | 580 kts | 69° |
| 2026-05-04 12:58 | 44.57077 | -48.37455 | 36896 ft | 579 kts | 68° |
| 2026-05-04 12:59 | 44.60541 | -48.27266 | 36895 ft | 578 kts | 69° |
| 2026-05-04 12:59 | 44.63994 | -48.17072 | 36889 ft | 578 kts | 69° |
| 2026-05-04 13:00 | 44.67433 | -48.06875 | 36884 ft | 577 kts | 68° |
| 2026-05-04 13:00 | 44.70857 | -47.96690 | 36886 ft | 575 kts | 69° |
| 2026-05-04 13:01 | 44.74264 | -47.86515 | 36882 ft | 575 kts | 69° |
| 2026-05-04 13:01 | 44.77661 | -47.76328 | 36869 ft | 574 kts | 68° |
| 2026-05-04 13:02 | 44.80467 | -47.67885 | 36881 ft | 572 kts | 69° |
| 2026-05-04 13:02 | 44.84375 | -47.56082 | 36873 ft | 572 kts | 69° |
| 2026-05-04 13:03 | 44.87728 | -47.45913 | 36875 ft | 572 kts | 69° |
| 2026-05-04 13:03 | 44.90530 | -47.37384 | 36880 ft | 572 kts | 69° |
| 2026-05-04 13:04 | 44.93845 | -47.27256 | 36881 ft | 572 kts | 69° |
| 2026-05-04 13:04 | 44.97169 | -47.17066 | 36891 ft | 570 kts | 68° |
| 2026-05-04 13:05 | 45.00466 | -47.06912 | 36887 ft | 568 kts | 68° |
| 2026-05-04 13:05 | 45.03748 | -46.96771 | 36893 ft | 567 kts | 68° |
| 2026-05-04 13:06 | 45.07018 | -46.86628 | 36899 ft | 567 kts | 68° |
| 2026-05-04 13:06 | 45.10278 | -46.76471 | 36893 ft | 566 kts | 68° |
| 2026-05-04 13:07 | 45.13526 | -46.66314 | 36920 ft | 566 kts | 68° |
| 2026-05-04 13:07 | 45.16764 | -46.56152 | 36930 ft | 566 kts | 68° |
| 2026-05-04 13:08 | 45.19994 | -46.45978 | 36923 ft | 566 kts | 68° |
| 2026-05-04 13:08 | 45.23196 | -46.35840 | 36926 ft | 567 kts | 68° |
| 2026-05-04 13:09 | 45.26415 | -46.25619 | 36926 ft | 567 kts | 68° |
| 2026-05-04 13:09 | 45.29627 | -46.15379 | 36951 ft | 567 kts | 68° |
| 2026-05-04 13:10 | 45.32824 | -46.05142 | 36946 ft | 566 kts | 68° |
| 2026-05-04 13:10 | 45.36006 | -45.94916 | 36948 ft | 565 kts | 68° |
| 2026-05-04 13:11 | 45.39171 | -45.84695 | 36950 ft | 563 kts | 67° |
| 2026-05-04 13:11 | 45.42298 | -45.74564 | 36957 ft | 562 kts | 66° |
| 2026-05-04 13:12 | 45.45429 | -45.64380 | 36969 ft | 561 kts | 66° |
| 2026-05-04 13:12 | 45.48551 | -45.54187 | 36972 ft | 561 kts | 66° |
| 2026-05-04 13:13 | 45.51666 | -45.43974 | 36978 ft | 561 kts | 66° |
| 2026-05-04 13:13 | 45.54769 | -45.33757 | 36983 ft | 560 kts | 66° |
| 2026-05-04 13:14 | 45.57856 | -45.23550 | 36988 ft | 560 kts | 67° |
| 2026-05-04 13:14 | 45.60939 | -45.13318 | 36988 ft | 560 kts | 67° |
| 2026-05-04 13:15 | 45.64009 | -45.03087 | 37003 ft | 559 kts | 67° |
| 2026-05-04 13:15 | 45.67063 | -44.92867 | 37010 ft | 559 kts | 67° |
| 2026-05-04 13:16 | 45.70088 | -44.82701 | 37012 ft | 558 kts | 67° |
| 2026-05-04 13:16 | 45.73122 | -44.72466 | 37010 ft | 558 kts | 67° |
| 2026-05-04 13:17 | 45.76136 | -44.62254 | 37015 ft | 556 kts | 67° |
| 2026-05-04 13:17 | 45.79142 | -44.52031 | 37025 ft | 556 kts | 67° |
| 2026-05-04 13:18 | 45.82130 | -44.41824 | 37030 ft | 555 kts | 67° |
| 2026-05-04 13:18 | 45.85108 | -44.31608 | 37040 ft | 554 kts | 67° |
| 2026-05-04 13:19 | 45.88055 | -44.21461 | 37044 ft | 554 kts | 67° |
| 2026-05-04 13:19 | 45.91010 | -44.11243 | 37053 ft | 554 kts | 67° |
| 2026-05-04 13:20 | 45.93954 | -44.01020 | 37065 ft | 554 kts | 67° |
| 2026-05-04 13:20 | 45.96891 | -43.90778 | 37067 ft | 554 kts | 67° |
| 2026-05-04 13:21 | 45.99826 | -43.80501 | 37064 ft | 554 kts | 67° |
| 2026-05-04 13:21 | 46.02727 | -43.70300 | 37080 ft | 554 kts | 67° |
| 2026-05-04 13:22 | 46.05642 | -43.60007 | 37072 ft | 555 kts | 68° |
| 2026-05-04 13:22 | 46.08551 | -43.49693 | 37077 ft | 555 kts | 68° |
| 2026-05-04 13:23 | 46.11450 | -43.39368 | 37094 ft | 555 kts | 68° |
| 2026-05-04 13:23 | 46.14336 | -43.29044 | 37093 ft | 555 kts | 67° |
| 2026-05-04 13:24 | 46.17194 | -43.18780 | 37101 ft | 554 kts | 68° |
| 2026-05-04 13:24 | 46.20058 | -43.08449 | 37102 ft | 553 kts | 67° |
| 2026-05-04 13:25 | 46.24329 | -42.92957 | 37110 ft | 553 kts | 67° |
| 2026-05-04 13:25 | 46.27164 | -42.82622 | 37122 ft | 553 kts | 67° |
| 2026-05-04 13:26 | 46.29991 | -42.72272 | 37124 ft | 553 kts | 67° |
| 2026-05-04 13:26 | 46.32791 | -42.61975 | 37134 ft | 553 kts | 67° |
| 2026-05-04 13:27 | 46.35596 | -42.51608 | 37139 ft | 553 kts | 67° |
| 2026-05-04 13:27 | 46.38398 | -42.41218 | 37144 ft | 553 kts | 67° |
| 2026-05-04 13:28 | 46.41185 | -42.30834 | 37139 ft | 553 kts | 67° |
| 2026-05-04 13:28 | 46.43966 | -42.20420 | 37156 ft | 554 kts | 67° |
| 2026-05-04 13:29 | 46.46739 | -42.09998 | 37162 ft | 554 kts | 67° |
| 2026-05-04 13:29 | 46.49498 | -41.99582 | 37162 ft | 554 kts | 67° |
| 2026-05-04 13:30 | 46.52253 | -41.89132 | 37178 ft | 554 kts | 67° |
| 2026-05-04 13:30 | 46.54999 | -41.78669 | 37175 ft | 555 kts | 67° |
| 2026-05-04 13:31 | 46.57737 | -41.68189 | 37169 ft | 554 kts | 66° |
| 2026-05-04 13:31 | 46.60446 | -41.57773 | 37182 ft | 553 kts | 67° |
| 2026-05-04 13:32 | 46.63155 | -41.47309 | 37192 ft | 553 kts | 66° |
| 2026-05-04 13:32 | 46.65860 | -41.36819 | 37197 ft | 552 kts | 66° |
| 2026-05-04 13:33 | 46.68549 | -41.26343 | 37198 ft | 552 kts | 67° |
| 2026-05-04 13:33 | 46.71231 | -41.15845 | 37209 ft | 552 kts | 67° |
| 2026-05-04 13:34 | 46.73892 | -41.05366 | 37214 ft | 549 kts | 66° |
| 2026-05-04 13:34 | 46.76535 | -40.94931 | 37214 ft | 549 kts | 66° |
| 2026-05-04 13:35 | 46.80469 | -40.79306 | 37222 ft | 549 kts | 66° |
| 2026-05-04 13:36 | 46.83078 | -40.68866 | 37229 ft | 546 kts | 66° |
| 2026-05-04 13:36 | 46.85670 | -40.58463 | 37233 ft | 545 kts | 66° |
| 2026-05-04 13:37 | 46.88255 | -40.48044 | 37239 ft | 545 kts | 66° |
| 2026-05-04 13:37 | 46.90830 | -40.37612 | 37241 ft | 545 kts | 66° |
| 2026-05-04 13:38 | 46.93394 | -40.27175 | 37248 ft | 545 kts | 66° |
| 2026-05-04 13:38 | 46.95948 | -40.16731 | 37249 ft | 543 kts | 66° |
| 2026-05-04 13:39 | 46.98467 | -40.06382 | 37245 ft | 542 kts | 66° |
| 2026-05-04 13:39 | 47.01002 | -39.95986 | 37252 ft | 539 kts | 65° |
| 2026-05-04 13:40 | 47.03595 | -39.85667 | 37269 ft | 538 kts | 65° |
| 2026-05-04 13:40 | 47.06190 | -39.75374 | 37268 ft | 538 kts | 65° |
| 2026-05-04 13:41 | 47.08773 | -39.65047 | 37282 ft | 538 kts | 65° |
| 2026-05-04 13:41 | 47.11314 | -39.54810 | 37273 ft | 537 kts | 65° |
| 2026-05-04 13:42 | 47.15127 | -39.39350 | 37277 ft | 536 kts | 65° |
| 2026-05-04 13:42 | 47.17656 | -39.29042 | 37275 ft | 536 kts | 65° |
| 2026-05-04 13:43 | 47.20170 | -39.18740 | 37272 ft | 534 kts | 65° |
| 2026-05-04 13:43 | 47.22666 | -39.08468 | 37293 ft | 533 kts | 65° |
| 2026-05-04 13:44 | 47.25154 | -38.98191 | 37297 ft | 533 kts | 65° |
| 2026-05-04 13:44 | 47.27635 | -38.87891 | 37302 ft | 533 kts | 65° |
| 2026-05-04 13:45 | 47.30093 | -38.77625 | 37301 ft | 530 kts | 65° |
| 2026-05-04 13:45 | 47.32538 | -38.67377 | 37300 ft | 530 kts | 65° |
| 2026-05-04 13:46 | 47.34960 | -38.57182 | 37308 ft | 528 kts | 64° |
| 2026-05-04 13:46 | 47.37372 | -38.46971 | 37315 ft | 526 kts | 64° |
| 2026-05-04 13:47 | 47.39764 | -38.36801 | 37315 ft | 524 kts | 64° |
| 2026-05-04 13:47 | 47.42149 | -38.26622 | 37318 ft | 524 kts | 64° |
| 2026-05-04 13:48 | 47.44526 | -38.16426 | 37319 ft | 524 kts | 65° |
| 2026-05-04 13:48 | 47.46884 | -38.06258 | 37323 ft | 522 kts | 64° |
| 2026-05-04 13:49 | 47.49213 | -37.96168 | 37324 ft | 521 kts | 65° |
| 2026-05-04 13:49 | 47.51546 | -37.86019 | 37332 ft | 521 kts | 65° |
| 2026-05-04 13:50 | 47.53870 | -37.75864 | 37335 ft | 521 kts | 65° |
| 2026-05-04 13:50 | 47.55797 | -37.67397 | 37336 ft | 520 kts | 64° |
| 2026-05-04 13:51 | 47.58100 | -37.57236 | 37344 ft | 520 kts | 65° |
| 2026-05-04 13:51 | 47.60390 | -37.47094 | 37344 ft | 519 kts | 65° |
| 2026-05-04 13:52 | 47.63811 | -37.31839 | 37359 ft | 519 kts | 64° |
| 2026-05-04 13:53 | 47.66061 | -37.21744 | 37346 ft | 518 kts | 64° |
| 2026-05-04 13:53 | 47.68316 | -37.11586 | 37349 ft | 518 kts | 64° |
| 2026-05-04 13:54 | 47.71682 | -36.96325 | 37354 ft | 518 kts | 65° |
| 2026-05-04 13:55 | 47.75026 | -36.81047 | 37358 ft | 517 kts | 65° |
| 2026-05-04 13:55 | 47.78343 | -36.65787 | 37360 ft | 517 kts | 65° |
| 2026-05-04 13:56 | 47.80543 | -36.55600 | 37371 ft | 517 kts | 65° |
| 2026-05-04 13:57 | 47.83817 | -36.40349 | 37373 ft | 517 kts | 65° |
| 2026-05-04 13:58 | 47.88165 | -36.19914 | 37372 ft | 518 kts | 65° |
| 2026-05-04 13:58 | 47.91410 | -36.04541 | 37373 ft | 520 kts | 65° |
| 2026-05-04 13:59 | 47.93564 | -35.94261 | 37384 ft | 520 kts | 66° |
| 2026-05-04 14:00 | 47.96781 | -35.78805 | 37388 ft | 520 kts | 66° |
| 2026-05-04 14:00 | 47.99975 | -35.63354 | 37402 ft | 523 kts | 66° |
| 2026-05-04 14:01 | 48.02105 | -35.52978 | 37385 ft | 523 kts | 66° |
| 2026-05-04 14:02 | 48.05285 | -35.37384 | 37387 ft | 523 kts | 66° |
| 2026-05-04 14:02 | 48.07399 | -35.26949 | 37397 ft | 523 kts | 66° |
| 2026-05-04 14:03 | 48.09500 | -35.16517 | 37399 ft | 522 kts | 66° |
| 2026-05-04 14:03 | 48.11579 | -35.06141 | 37395 ft | 520 kts | 66° |
| 2026-05-04 14:04 | 48.14670 | -34.90636 | 37408 ft | 519 kts | 66° |
| 2026-05-04 14:04 | 48.16717 | -34.80290 | 37406 ft | 517 kts | 66° |
| 2026-05-04 14:05 | 48.19769 | -34.64768 | 37408 ft | 517 kts | 66° |
| 2026-05-04 14:06 | 48.21789 | -34.54423 | 37409 ft | 517 kts | 66° |
| 2026-05-04 14:06 | 48.23799 | -34.44069 | 37409 ft | 516 kts | 66° |
| 2026-05-04 14:07 | 48.25800 | -34.33707 | 37412 ft | 516 kts | 67° |
| 2026-05-04 14:07 | 48.27777 | -34.23419 | 37413 ft | 516 kts | 67° |
| 2026-05-04 14:08 | 48.29759 | -34.13043 | 37447 ft | 517 kts | 67° |
| 2026-05-04 14:08 | 48.31735 | -34.02649 | 37412 ft | 517 kts | 68° |
| 2026-05-04 14:09 | 48.34678 | -33.87048 | 37416 ft | 517 kts | 68° |
| 2026-05-04 14:10 | 48.37604 | -33.71410 | 37444 ft | 518 kts | 68° |
| 2026-05-04 14:10 | 48.39549 | -33.60961 | 37423 ft | 519 kts | 68° |
| 2026-05-04 14:11 | 48.41473 | -33.50542 | 37426 ft | 519 kts | 69° |
| 2026-05-04 14:11 | 48.44358 | -33.34806 | 37428 ft | 520 kts | 69° |
| 2026-05-04 14:12 | 48.46275 | -33.24296 | 37427 ft | 520 kts | 69° |
| 2026-05-04 14:13 | 48.49106 | -33.08637 | 37432 ft | 521 kts | 70° |
| 2026-05-04 14:13 | 48.51000 | -32.98084 | 37427 ft | 521 kts | 70° |
| 2026-05-04 14:14 | 48.52886 | -32.87520 | 37450 ft | 521 kts | 70° |
| 2026-05-04 14:14 | 48.55695 | -32.71663 | 37436 ft | 522 kts | 71° |
| 2026-05-04 14:15 | 48.59401 | -32.50531 | 37441 ft | 522 kts | 71° |
| 2026-05-04 14:16 | 48.62164 | -32.34609 | 37443 ft | 522 kts | 71° |
| 2026-05-04 14:17 | 48.64907 | -32.18658 | 37441 ft | 522 kts | 71° |
| 2026-05-04 14:18 | 48.67626 | -32.02709 | 37452 ft | 522 kts | 72° |
| 2026-05-04 14:19 | 48.71221 | -31.81382 | 37446 ft | 523 kts | 72° |
| 2026-05-04 14:19 | 48.72992 | -31.70773 | 37449 ft | 523 kts | 72° |
| 2026-05-04 14:20 | 48.74768 | -31.60085 | 37459 ft | 523 kts | 73° |
| 2026-05-04 14:20 | 48.76533 | -31.49390 | 37452 ft | 523 kts | 73° |
| 2026-05-04 14:21 | 48.79162 | -31.33307 | 37450 ft | 523 kts | 73° |
| 2026-05-04 14:21 | 48.80905 | -31.22571 | 37451 ft | 523 kts | 73° |
| 2026-05-04 14:22 | 48.82624 | -31.11916 | 37453 ft | 523 kts | 74° |
| 2026-05-04 14:22 | 48.84346 | -31.01173 | 37453 ft | 524 kts | 74° |
| 2026-05-04 14:23 | 48.86909 | -30.85045 | 37459 ft | 524 kts | 74° |
| 2026-05-04 14:24 | 48.88605 | -30.74290 | 37471 ft | 524 kts | 74° |
| 2026-05-04 14:24 | 48.90292 | -30.63517 | 37461 ft | 524 kts | 75° |
| 2026-05-04 14:25 | 48.91970 | -30.52728 | 37461 ft | 524 kts | 75° |
| 2026-05-04 14:25 | 48.93356 | -30.43768 | 37463 ft | 524 kts | 75° |
| 2026-05-04 14:27 | 48.94382 | -30.37102 | 37456 ft | 524 kts | 75° |
| 2026-05-04 14:28 | 48.96037 | -30.26294 | 37458 ft | 524 kts | 75° |
| 2026-05-04 14:28 | 48.97671 | -30.15539 | 37462 ft | 524 kts | 75° |
| 2026-05-04 14:29 | 49.00911 | -29.93908 | 37459 ft | 524 kts | 76° |
| 2026-05-04 14:30 | 49.02479 | -29.83066 | 37461 ft | 524 kts | 76° |
| 2026-05-04 14:31 | 49.04802 | -29.66817 | 37464 ft | 523 kts | 76° |
| 2026-05-04 14:32 | 49.07861 | -29.45224 | 37449 ft | 522 kts | 76° |
| 2026-05-04 14:32 | 49.09381 | -29.34385 | 37449 ft | 522 kts | 76° |
| 2026-05-04 14:33 | 49.10891 | -29.23538 | 37450 ft | 522 kts | 76° |
| 2026-05-04 14:33 | 49.12390 | -29.12686 | 37464 ft | 522 kts | 76° |
| 2026-05-04 14:34 | 49.13880 | -29.01824 | 37456 ft | 522 kts | 76° |
| 2026-05-04 14:34 | 49.15357 | -28.90970 | 37451 ft | 521 kts | 76° |
| 2026-05-04 14:35 | 49.16824 | -28.80111 | 37448 ft | 521 kts | 76° |
| 2026-05-04 14:35 | 49.18270 | -28.69325 | 37449 ft | 521 kts | 77° |
| 2026-05-04 14:36 | 49.19716 | -28.58460 | 37454 ft | 521 kts | 77° |
| 2026-05-04 14:36 | 49.21147 | -28.47621 | 37446 ft | 520 kts | 77° |
| 2026-05-04 14:37 | 49.22569 | -28.36768 | 37444 ft | 520 kts | 77° |
| 2026-05-04 14:37 | 49.23981 | -28.25915 | 37443 ft | 520 kts | 77° |
| 2026-05-04 14:38 | 49.25383 | -28.15046 | 37444 ft | 520 kts | 77° |
| 2026-05-04 14:38 | 49.26542 | -28.06002 | 37441 ft | 520 kts | 77° |
| 2026-05-04 14:39 | 49.28145 | -27.93383 | 37442 ft | 519 kts | 77° |
| 2026-05-04 14:39 | 49.29291 | -27.84291 | 37441 ft | 519 kts | 77° |
| 2026-05-04 14:40 | 49.31318 | -27.68063 | 37442 ft | 518 kts | 77° |
| 2026-05-04 14:40 | 49.32659 | -27.57223 | 37441 ft | 517 kts | 77° |
| 2026-05-04 14:41 | 49.33990 | -27.46368 | 37441 ft | 517 kts | 77° |
| 2026-05-04 14:42 | 49.36619 | -27.24669 | 37442 ft | 517 kts | 78° |
| 2026-05-04 14:42 | 49.37915 | -27.13834 | 37435 ft | 516 kts | 78° |
| 2026-05-04 14:43 | 49.39201 | -27.02995 | 37438 ft | 516 kts | 78° |
| 2026-05-04 14:43 | 49.40477 | -26.92156 | 37435 ft | 516 kts | 78° |
| 2026-05-04 14:44 | 49.41742 | -26.81309 | 37440 ft | 516 kts | 78° |
| 2026-05-04 14:44 | 49.42986 | -26.70556 | 37435 ft | 515 kts | 78° |
| 2026-05-04 14:45 | 49.44230 | -26.59706 | 37432 ft | 515 kts | 78° |
| 2026-05-04 14:45 | 49.45462 | -26.48870 | 37432 ft | 514 kts | 78° |
| 2026-05-04 14:46 | 49.46684 | -26.38029 | 37441 ft | 515 kts | 78° |
| 2026-05-04 14:46 | 49.47895 | -26.27190 | 37427 ft | 514 kts | 78° |
| 2026-05-04 14:47 | 49.49087 | -26.16418 | 37427 ft | 513 kts | 78° |
| 2026-05-04 14:47 | 49.50274 | -26.05602 | 37425 ft | 513 kts | 79° |
| 2026-05-04 14:48 | 49.51451 | -25.94780 | 37427 ft | 513 kts | 79° |
| 2026-05-04 14:48 | 49.52616 | -25.83969 | 37427 ft | 512 kts | 79° |
| 2026-05-04 14:49 | 49.53772 | -25.73150 | 37422 ft | 512 kts | 79° |
| 2026-05-04 14:49 | 49.54916 | -25.62333 | 37422 ft | 512 kts | 79° |
| 2026-05-04 14:50 | 49.56051 | -25.51507 | 37417 ft | 512 kts | 79° |
| 2026-05-04 14:50 | 49.57168 | -25.40745 | 37416 ft | 511 kts | 79° |
| 2026-05-04 14:51 | 49.58282 | -25.29917 | 37416 ft | 511 kts | 79° |
| 2026-05-04 14:51 | 49.59386 | -25.19087 | 37414 ft | 511 kts | 79° |
| 2026-05-04 14:52 | 49.60479 | -25.08255 | 37414 ft | 511 kts | 79° |
| 2026-05-04 14:52 | 49.61560 | -24.97432 | 37412 ft | 511 kts | 79° |
| 2026-05-04 14:53 | 49.62630 | -24.86611 | 37414 ft | 510 kts | 79° |
| 2026-05-04 14:53 | 49.63692 | -24.75771 | 37408 ft | 510 kts | 79° |
| 2026-05-04 14:54 | 49.64743 | -24.64943 | 37408 ft | 510 kts | 79° |
| 2026-05-04 14:54 | 49.65783 | -24.54111 | 37404 ft | 510 kts | 79° |
| 2026-05-04 14:55 | 49.66812 | -24.43284 | 37399 ft | 510 kts | 79° |
| 2026-05-04 14:55 | 49.67823 | -24.32536 | 37410 ft | 509 kts | 79° |
| 2026-05-04 14:56 | 49.68831 | -24.21707 | 37408 ft | 509 kts | 79° |
| 2026-05-04 14:56 | 49.69828 | -24.10898 | 37401 ft | 509 kts | 80° |
| 2026-05-04 14:57 | 49.70815 | -24.00074 | 37405 ft | 509 kts | 80° |
| 2026-05-04 14:57 | 49.71791 | -23.89250 | 37394 ft | 509 kts | 80° |
| 2026-05-04 14:58 | 49.72758 | -23.78419 | 37393 ft | 509 kts | 80° |
| 2026-05-04 14:58 | 49.73715 | -23.67575 | 37397 ft | 509 kts | 80° |
| 2026-05-04 14:59 | 49.74663 | -23.56719 | 37386 ft | 509 kts | 80° |
| 2026-05-04 15:00 | 49.76063 | -23.40459 | 37395 ft | 509 kts | 80° |
| 2026-05-04 15:00 | 49.76911 | -23.30477 | 37390 ft | 509 kts | 81° |
| 2026-05-04 15:01 | 49.78271 | -23.14252 | 37389 ft | 510 kts | 81° |
| 2026-05-04 15:01 | 49.79169 | -23.03378 | 37387 ft | 510 kts | 81° |
| 2026-05-04 15:02 | 49.80057 | -22.92491 | 37387 ft | 510 kts | 81° |
| 2026-05-04 15:02 | 49.80935 | -22.81593 | 37383 ft | 510 kts | 81° |
| 2026-05-04 15:03 | 49.81804 | -22.70695 | 37388 ft | 510 kts | 81° |
| 2026-05-04 15:03 | 49.82664 | -22.59772 | 37382 ft | 511 kts | 81° |
| 2026-05-04 15:04 | 49.83513 | -22.48841 | 37382 ft | 511 kts | 82° |
| 2026-05-04 15:04 | 49.84347 | -22.37980 | 37376 ft | 510 kts | 82° |
| 2026-05-04 15:05 | 49.85174 | -22.27065 | 37377 ft | 510 kts | 82° |
| 2026-05-04 15:05 | 49.85991 | -22.16148 | 37374 ft | 510 kts | 82° |
| 2026-05-04 15:06 | 49.86798 | -22.05232 | 37371 ft | 510 kts | 82° |